createdAt,value
2019-05-22T00:00:34.889Z,11.80
2019-05-22T00:03:04.080Z,11.80
2019-05-22T00:05:33.907Z,11.80
2019-05-22T00:08:04.331Z,11.80
2019-05-22T00:10:34.691Z,11.80
2019-05-22T00:13:06.825Z,11.80
2019-05-22T00:15:38.586Z,11.80
2019-05-22T00:18:07.763Z,11.80
2019-05-22T00:20:37.287Z,11.80
2019-05-22T00:23:12.340Z,11.90
2019-05-22T00:25:43.450Z,11.80
2019-05-22T00:28:12.781Z,11.80
2019-05-22T00:30:45.040Z,11.90
2019-05-22T00:33:14.125Z,11.90
2019-05-22T00:35:44.697Z,11.90
2019-05-22T00:38:14.976Z,11.80
2019-05-22T00:40:47.471Z,11.80
2019-05-22T00:43:18.554Z,11.80
2019-05-22T00:45:50.457Z,11.70
2019-05-22T00:48:23.673Z,11.70
2019-05-22T00:51:09.877Z,11.70
2019-05-22T00:53:51.785Z,11.70
2019-05-22T00:56:36.226Z,11.70
2019-05-22T00:59:09.412Z,11.70
2019-05-22T01:01:45.513Z,11.70
2019-05-22T01:04:16.733Z,11.70
2019-05-22T01:06:48.453Z,11.70
2019-05-22T01:09:27.229Z,11.70
2019-05-22T01:11:56.138Z,11.70
2019-05-22T01:14:40.485Z,11.70
2019-05-22T01:16:59.635Z,11.70
2019-05-22T01:19:30.206Z,11.70
2019-05-22T01:22:01.564Z,11.70
2019-05-22T01:24:31.170Z,11.70
2019-05-22T01:27:00.380Z,11.70
2019-05-22T01:29:30.034Z,11.70
2019-05-22T01:32:06.505Z,11.70
2019-05-22T01:34:36.097Z,11.70
2019-05-22T01:37:10.213Z,11.70
2019-05-22T01:39:56.243Z,11.70
2019-05-22T01:42:32.055Z,11.70
2019-05-22T01:45:06.448Z,11.70
2019-05-22T01:47:48.498Z,11.70
2019-05-22T01:50:25.506Z,11.70
2019-05-22T01:52:55.887Z,11.70
2019-05-22T01:55:26.220Z,11.70
2019-05-22T01:57:55.694Z,11.70
2019-05-22T02:00:24.504Z,11.70
2019-05-22T02:02:53.874Z,11.60
2019-05-22T02:05:24.980Z,11.60
2019-05-22T02:07:55.653Z,11.60
2019-05-22T02:10:30.018Z,11.60
2019-05-22T02:13:02.852Z,11.60
2019-05-22T02:15:32.553Z,11.60
2019-05-22T02:18:05.878Z,11.60
2019-05-22T02:20:36.416Z,11.60
2019-05-22T02:23:06.976Z,11.60
2019-05-22T02:25:37.721Z,11.60
2019-05-22T02:28:07.128Z,11.60
2019-05-22T02:30:38.138Z,11.60
2019-05-22T02:33:08.683Z,11.60
2019-05-22T02:35:39.357Z,11.60
2019-05-22T02:38:09.590Z,11.60
2019-05-22T02:40:41.791Z,11.60
2019-05-22T02:43:11.666Z,11.60
2019-05-22T02:45:41.775Z,11.60
2019-05-22T02:48:11.924Z,11.60
2019-05-22T02:50:41.959Z,11.60
2019-05-22T02:53:13.627Z,11.60
2019-05-22T02:55:43.082Z,11.70
2019-05-22T02:58:12.980Z,11.70
2019-05-22T03:00:59.219Z,11.70
2019-05-22T03:03:28.799Z,11.70
2019-05-22T03:05:58.666Z,11.60
2019-05-22T03:08:34.314Z,11.60
2019-05-22T03:11:03.872Z,11.60
2019-05-22T03:13:59.545Z,11.60
2019-05-22T03:16:30.867Z,11.60
2019-05-22T03:19:08.904Z,11.50
2019-05-22T03:21:31.648Z,11.50
2019-05-22T03:24:00.794Z,11.50
2019-05-22T03:26:39.631Z,11.60
2019-05-22T03:29:10.726Z,11.60
2019-05-22T03:31:39.825Z,11.60
2019-05-22T03:34:10.377Z,11.60
2019-05-22T03:36:39.417Z,11.50
2019-05-22T03:39:08.913Z,11.60
2019-05-22T03:41:37.997Z,11.60
2019-05-22T03:44:07.909Z,11.60
2019-05-22T03:46:42.994Z,11.60
2019-05-22T03:49:29.241Z,11.60
2019-05-22T03:51:46.945Z,11.60
2019-05-22T03:54:16.350Z,11.60
2019-05-22T03:56:46.478Z,11.60
2019-05-22T03:59:15.862Z,11.60
2019-05-22T04:01:45.714Z,11.60
2019-05-22T04:04:19.966Z,11.60
2019-05-22T04:06:52.213Z,11.60
2019-05-22T04:09:25.221Z,11.60
2019-05-22T04:11:54.970Z,11.60
2019-05-22T04:14:32.441Z,11.60
2019-05-22T04:17:03.067Z,11.60
2019-05-22T04:19:47.309Z,11.60
2019-05-22T04:22:07.139Z,11.70
2019-05-22T04:24:36.380Z,11.70
2019-05-22T04:27:07.506Z,11.70
2019-05-22T04:29:37.118Z,11.70
2019-05-22T04:32:15.564Z,11.70
2019-05-22T04:34:45.553Z,11.70
2019-05-22T04:37:15.600Z,11.70
2019-05-22T04:39:48.247Z,11.70
2019-05-22T04:42:18.209Z,11.70
2019-05-22T04:45:09.882Z,11.80
2019-05-22T04:47:39.898Z,11.70
2019-05-22T04:50:10.730Z,11.80
2019-05-22T04:52:39.744Z,11.80
2019-05-22T04:55:11.204Z,11.80
2019-05-22T04:57:40.887Z,11.80
2019-05-22T05:00:13.138Z,11.80
2019-05-22T05:02:42.065Z,11.80
2019-05-22T05:05:12.417Z,11.80
2019-05-22T05:07:41.590Z,11.90
2019-05-22T05:10:11.232Z,11.90
2019-05-22T05:12:42.239Z,12.00
2019-05-22T05:15:11.393Z,12.00
2019-05-22T05:17:40.639Z,12.00
2019-05-22T05:20:22.190Z,12.10
2019-05-22T05:22:43.366Z,12.10
2019-05-22T05:25:12.461Z,12.20
2019-05-22T05:27:41.601Z,12.30
2019-05-22T05:30:11.390Z,12.40
2019-05-22T05:32:40.748Z,12.50
2019-05-22T05:35:10.177Z,12.60
2019-05-22T05:37:41.213Z,12.70
2019-05-22T05:40:33.544Z,12.70
2019-05-22T05:43:03.541Z,12.90
2019-05-22T05:45:33.718Z,13.00
2019-05-22T05:48:05.964Z,13.00
2019-05-22T05:50:40.002Z,13.10
2019-05-22T05:53:14.552Z,13.20
2019-05-22T05:56:13.440Z,13.30
2019-05-22T05:58:42.520Z,13.40
2019-05-22T06:01:23.199Z,13.50
2019-05-22T06:03:52.900Z,13.60
2019-05-22T06:07:13.633Z,13.80
2019-05-22T06:09:42.681Z,13.90
2019-05-22T06:12:12.949Z,14.10
2019-05-22T06:14:42.023Z,14.30
2019-05-22T06:17:52.353Z,14.40
2019-05-22T06:20:21.618Z,14.60
2019-05-22T06:23:50.525Z,14.70
2019-05-22T06:27:21.940Z,14.80
2019-05-22T06:30:00.234Z,14.80
2019-05-22T06:33:19.378Z,15.00
2019-05-22T06:35:50.494Z,15.20
2019-05-22T06:38:47.591Z,15.40
2019-05-22T06:41:16.947Z,15.50
2019-05-22T06:44:39.648Z,15.70
2019-05-22T06:47:11.321Z,15.80
2019-05-22T06:49:52.676Z,15.80
2019-05-22T06:52:21.945Z,15.80
2019-05-22T06:54:52.032Z,15.70
2019-05-22T06:57:29.425Z,15.70
2019-05-22T07:00:12.300Z,15.60
2019-05-22T07:02:31.714Z,15.50
2019-05-22T07:05:00.881Z,15.50
2019-05-22T07:07:29.943Z,15.40
2019-05-22T07:09:59.284Z,15.30
2019-05-22T07:12:31.293Z,15.30
2019-05-22T07:15:23.089Z,15.30
2019-05-22T07:17:55.639Z,15.40
2019-05-22T07:20:27.295Z,15.40
2019-05-22T07:22:57.805Z,15.40
2019-05-22T07:25:27.980Z,15.20
2019-05-22T07:27:58.673Z,15.30
2019-05-22T07:30:28.070Z,15.70
2019-05-22T07:32:57.149Z,16.30
2019-05-22T07:35:44.111Z,16.90
2019-05-22T07:37:57.945Z,17.30
2019-05-22T07:40:27.281Z,17.40
2019-05-22T07:42:56.810Z,17.80
2019-05-22T07:45:27.152Z,17.90
2019-05-22T07:47:57.237Z,18.20
2019-05-22T07:50:28.475Z,18.40
2019-05-22T07:52:57.990Z,18.60
2019-05-22T07:55:29.167Z,19.00
2019-05-22T07:58:17.522Z,19.00
2019-05-22T08:00:51.604Z,18.80
2019-05-22T08:03:21.465Z,18.40
2019-05-22T08:05:54.828Z,18.30
2019-05-22T08:08:24.882Z,18.50
2019-05-22T08:10:55.182Z,18.90
2019-05-22T08:13:24.441Z,19.40
2019-05-22T08:15:53.658Z,19.60
2019-05-22T08:18:22.535Z,19.20
2019-05-22T08:20:51.792Z,18.70
2019-05-22T08:23:21.232Z,18.50
2019-05-22T08:25:50.964Z,18.50
2019-05-22T08:28:21.047Z,18.30
2019-05-22T08:30:50.901Z,18.10
2019-05-22T08:33:22.369Z,17.90
2019-05-22T08:35:51.325Z,18.10
2019-05-22T08:38:28.662Z,18.40
2019-05-22T08:40:59.969Z,18.30
2019-05-22T08:43:30.960Z,18.50
2019-05-22T08:46:00.415Z,18.80
2019-05-22T08:48:30.407Z,19.20
2019-05-22T08:51:00.021Z,19.10
2019-05-22T08:53:44.356Z,18.90
2019-05-22T08:56:00.640Z,18.30
2019-05-22T08:58:29.970Z,18.20
2019-05-22T09:00:59.373Z,18.30
2019-05-22T09:03:28.961Z,18.50
2019-05-22T09:05:58.118Z,18.40
2019-05-22T09:08:27.149Z,18.80
2019-05-22T09:10:56.624Z,19.40
2019-05-22T09:13:26.345Z,20.10
2019-05-22T09:15:55.985Z,20.40
2019-05-22T09:18:25.066Z,20.20
2019-05-22T09:20:54.145Z,20.10
2019-05-22T09:23:23.456Z,20.30
2019-05-22T09:25:52.538Z,20.90
2019-05-22T09:28:21.533Z,21.10
2019-05-22T09:30:50.731Z,20.80
2019-05-22T09:33:20.319Z,20.80
2019-05-22T09:35:49.937Z,21.30
2019-05-22T09:38:19.352Z,21.70
2019-05-22T09:40:48.418Z,22.10
2019-05-22T09:43:17.219Z,22.50
2019-05-22T09:45:46.097Z,23.00
2019-05-22T09:48:15.422Z,22.80
2019-05-22T09:50:44.700Z,22.20
2019-05-22T09:53:13.654Z,21.80
2019-05-22T09:55:46.913Z,21.70
2019-05-22T09:58:13.675Z,21.80
2019-05-22T10:00:42.545Z,21.80
2019-05-22T10:03:11.945Z,21.60
2019-05-22T10:05:41.312Z,21.40
2019-05-22T10:08:10.324Z,21.60
2019-05-22T10:10:39.734Z,22.10
2019-05-22T10:13:08.897Z,22.40
2019-05-22T10:15:39.157Z,22.40
2019-05-22T10:18:08.549Z,22.40
2019-05-22T10:20:37.588Z,22.40
2019-05-22T10:23:15.593Z,22.40
2019-05-22T10:25:38.433Z,22.40
2019-05-22T10:28:08.336Z,22.30
2019-05-22T10:30:37.816Z,21.90
2019-05-22T10:33:06.866Z,21.60
2019-05-22T10:35:37.226Z,21.60
2019-05-22T10:38:07.190Z,21.90
2019-05-22T10:40:36.172Z,22.00
2019-05-22T10:43:05.232Z,22.10
2019-05-22T10:45:34.622Z,22.20
2019-05-22T10:48:03.615Z,22.40
2019-05-22T10:50:32.840Z,22.30
2019-05-22T10:53:02.323Z,22.40
2019-05-22T10:55:31.757Z,22.70
2019-05-22T10:58:00.810Z,22.80
2019-05-22T11:00:30.880Z,22.80
2019-05-22T11:02:59.921Z,22.60
2019-05-22T11:05:28.974Z,22.50
2019-05-22T11:07:57.929Z,22.60
2019-05-22T11:10:27.490Z,22.60
2019-05-22T11:12:57.088Z,22.80
2019-05-22T11:15:26.853Z,23.00
2019-05-22T11:17:56.864Z,23.10
2019-05-22T11:20:26.294Z,23.20
2019-05-22T11:22:55.918Z,23.20
2019-05-22T11:25:25.010Z,23.30
2019-05-22T11:27:54.868Z,23.50
2019-05-22T11:30:24.721Z,23.50
2019-05-22T11:32:54.579Z,23.50
2019-05-22T11:35:23.869Z,23.50
2019-05-22T11:37:53.039Z,23.60
2019-05-22T11:40:22.641Z,23.70
2019-05-22T11:42:52.778Z,23.90
2019-05-22T11:45:22.484Z,24.00
2019-05-22T11:47:52.317Z,23.70
2019-05-22T11:50:23.405Z,23.10
2019-05-22T11:52:52.684Z,22.80
2019-05-22T11:55:21.656Z,22.90
2019-05-22T11:57:51.548Z,23.10
2019-05-22T12:00:21.308Z,23.20
2019-05-22T12:02:51.439Z,23.40
2019-05-22T12:05:21.809Z,23.70
2019-05-22T12:07:51.537Z,23.80
2019-05-22T12:10:21.978Z,24.10
2019-05-22T12:12:52.730Z,24.40
2019-05-22T12:15:23.941Z,24.50
2019-05-22T12:17:53.474Z,24.40
2019-05-22T12:20:22.925Z,24.20
2019-05-22T12:22:51.909Z,24.20
2019-05-22T12:25:21.041Z,24.30
2019-05-22T12:27:50.367Z,24.30
2019-05-22T12:30:20.230Z,24.40
2019-05-22T12:32:49.971Z,24.60
2019-05-22T12:35:19.320Z,24.70
2019-05-22T12:37:48.691Z,24.60
2019-05-22T12:40:20.137Z,24.40
2019-05-22T12:42:49.718Z,24.40
2019-05-22T12:45:24.939Z,24.20
2019-05-22T12:47:55.142Z,23.90
2019-05-22T12:50:28.284Z,23.80
2019-05-22T12:52:57.772Z,23.80
2019-05-22T12:55:27.113Z,24.00
2019-05-22T12:57:56.363Z,24.40
2019-05-22T13:00:28.378Z,24.70
2019-05-22T13:02:58.563Z,24.70
2019-05-22T13:05:28.393Z,24.40
2019-05-22T13:07:58.408Z,24.00
2019-05-22T13:10:27.938Z,23.70
2019-05-22T13:12:57.192Z,23.40
2019-05-22T13:15:26.475Z,23.10
2019-05-22T13:17:55.736Z,23.20
2019-05-22T13:20:42.071Z,23.30
2019-05-22T13:22:58.057Z,23.30
2019-05-22T13:25:32.641Z,23.00
2019-05-22T13:28:02.989Z,22.90
2019-05-22T13:30:35.354Z,23.30
2019-05-22T13:33:04.865Z,24.10
2019-05-22T13:35:34.858Z,24.80
2019-05-22T13:38:04.494Z,25.90
2019-05-22T13:40:34.538Z,27.10
2019-05-22T13:43:04.328Z,27.90
2019-05-22T13:45:33.469Z,28.00
2019-05-22T13:48:02.362Z,28.50
2019-05-22T13:50:31.775Z,29.00
2019-05-22T13:53:02.675Z,29.40
2019-05-22T13:55:32.540Z,29.80
2019-05-22T13:58:01.984Z,29.90
2019-05-22T14:00:31.415Z,30.20
2019-05-22T14:03:00.823Z,30.50
2019-05-22T14:05:31.117Z,30.40
2019-05-22T14:08:00.642Z,30.40
2019-05-22T14:10:30.350Z,30.30
2019-05-22T14:12:59.285Z,30.60
2019-05-22T14:15:47.443Z,30.70
2019-05-22T14:17:59.816Z,30.70
2019-05-22T14:20:28.892Z,30.80
2019-05-22T14:22:57.985Z,30.90
2019-05-22T14:25:27.947Z,31.10
2019-05-22T14:27:57.158Z,30.60
2019-05-22T14:30:27.839Z,29.50
2019-05-22T14:32:58.408Z,28.90
2019-05-22T14:35:46.901Z,28.40
2019-05-22T14:38:01.909Z,28.80
2019-05-22T14:40:32.617Z,29.30
2019-05-22T14:43:01.826Z,29.40
2019-05-22T14:45:30.716Z,29.20
2019-05-22T14:47:59.702Z,28.80
2019-05-22T14:50:32.580Z,28.00
2019-05-22T14:53:00.437Z,27.30
2019-05-22T14:55:31.632Z,26.60
2019-05-22T14:58:01.475Z,25.90
2019-05-22T15:00:31.209Z,26.00
2019-05-22T15:03:01.582Z,26.60
2019-05-22T15:05:31.166Z,26.40
2019-05-22T15:08:00.163Z,25.70
2019-05-22T15:10:30.317Z,24.80
2019-05-22T15:12:59.540Z,24.00
2019-05-22T15:15:28.859Z,23.40
2019-05-22T15:17:58.623Z,23.30
2019-05-22T15:20:37.173Z,23.70
2019-05-22T15:23:07.310Z,24.20
2019-05-22T15:25:36.765Z,24.80
2019-05-22T15:28:06.338Z,25.70
2019-05-22T15:30:35.494Z,26.80
2019-05-22T15:33:04.725Z,27.30
2019-05-22T15:35:34.461Z,27.50
2019-05-22T15:38:04.564Z,27.30
2019-05-22T15:40:34.788Z,27.70
2019-05-22T15:43:05.889Z,28.10
2019-05-22T15:45:35.694Z,28.00
2019-05-22T15:48:08.009Z,28.10
2019-05-22T15:50:38.844Z,28.30
2019-05-22T15:53:13.350Z,28.80
2019-05-22T15:55:42.565Z,28.60
2019-05-22T15:58:13.214Z,27.90
2019-05-22T16:00:44.459Z,27.10
2019-05-22T16:03:16.687Z,26.30
2019-05-22T16:05:46.707Z,25.60
2019-05-22T16:08:16.369Z,25.40
2019-05-22T16:10:48.189Z,25.80
2019-05-22T16:13:20.132Z,26.60
2019-05-22T16:15:52.081Z,27.60
2019-05-22T16:18:24.372Z,27.90
2019-05-22T16:20:54.558Z,28.10
2019-05-22T16:23:24.580Z,28.30
2019-05-22T16:25:53.894Z,28.50
2019-05-22T16:28:23.555Z,28.20
2019-05-22T16:30:53.406Z,28.30
2019-05-22T16:33:23.646Z,28.20
2019-05-22T16:35:52.818Z,27.40
2019-05-22T16:38:23.870Z,26.40
2019-05-22T16:40:53.028Z,25.50
2019-05-22T16:43:22.653Z,24.70
2019-05-22T16:45:52.483Z,24.20
2019-05-22T16:48:28.884Z,23.80
2019-05-22T16:50:53.553Z,23.40
2019-05-22T16:53:25.037Z,23.00
2019-05-22T16:55:56.205Z,22.50
2019-05-22T16:58:25.977Z,21.90
2019-05-22T17:00:56.934Z,21.40
2019-05-22T17:03:27.997Z,20.90
2019-05-22T17:05:57.911Z,20.60
2019-05-22T17:08:28.757Z,20.20
2019-05-22T17:10:58.477Z,19.90
2019-05-22T17:13:28.400Z,19.60
2019-05-22T17:15:57.660Z,19.30
2019-05-22T17:18:27.957Z,19.00
2019-05-22T17:20:58.843Z,18.70
2019-05-22T17:23:28.168Z,18.30
2019-05-22T17:25:58.006Z,18.10
2019-05-22T17:28:27.701Z,17.80
2019-05-22T17:30:57.860Z,17.80
2019-05-22T17:33:27.020Z,17.70
2019-05-22T17:35:56.902Z,17.60
2019-05-22T17:38:27.038Z,17.40
2019-05-22T17:40:56.270Z,17.20
2019-05-22T17:43:26.406Z,17.00
2019-05-22T17:45:57.437Z,16.80
2019-05-22T17:48:27.350Z,16.60
2019-05-22T17:50:56.581Z,16.40
2019-05-22T17:53:27.277Z,16.20
2019-05-22T17:55:57.030Z,16.00
2019-05-22T17:58:29.952Z,15.80
2019-05-22T18:00:57.915Z,15.70
2019-05-22T18:03:27.156Z,15.60
2019-05-22T18:05:56.860Z,15.50
2019-05-22T18:08:27.375Z,15.40
2019-05-22T18:10:57.131Z,15.20
2019-05-22T18:13:26.560Z,15.00
2019-05-22T18:15:55.843Z,14.90
2019-05-22T18:18:24.737Z,14.80
2019-05-22T18:20:54.196Z,14.60
2019-05-22T18:23:23.158Z,14.50
2019-05-22T18:25:51.967Z,14.40
2019-05-22T18:28:22.345Z,14.30
2019-05-22T18:30:51.297Z,14.30
2019-05-22T18:33:20.237Z,14.20
2019-05-22T18:35:49.109Z,14.10
2019-05-22T18:38:18.269Z,14.00
2019-05-22T18:40:47.542Z,13.90
2019-05-22T18:43:18.805Z,13.80
2019-05-22T18:45:47.413Z,13.70
2019-05-22T18:48:16.546Z,13.70
2019-05-22T18:50:45.404Z,13.60
2019-05-22T18:53:14.754Z,13.50
2019-05-22T18:55:43.557Z,13.40
2019-05-22T18:58:12.730Z,13.30
2019-05-22T19:00:42.062Z,13.30
2019-05-22T19:03:11.467Z,13.30
2019-05-22T19:05:40.428Z,13.20
2019-05-22T19:08:09.704Z,13.10
2019-05-22T19:10:38.967Z,12.90
2019-05-22T19:13:08.510Z,12.90
2019-05-22T19:15:37.416Z,12.80
2019-05-22T19:18:06.663Z,12.70
2019-05-22T19:20:36.309Z,12.70
2019-05-22T19:23:05.918Z,12.60
2019-05-22T19:25:34.752Z,12.50
2019-05-22T19:28:04.321Z,12.40
2019-05-22T19:30:33.698Z,12.30
2019-05-22T19:33:03.665Z,12.20
2019-05-22T19:35:32.918Z,12.10
2019-05-22T19:38:01.887Z,12.00
2019-05-22T19:40:31.429Z,11.90
2019-05-22T19:43:00.557Z,11.80
2019-05-22T19:45:30.981Z,11.70
2019-05-22T19:48:01.021Z,11.70
2019-05-22T19:50:31.308Z,11.60
2019-05-22T19:53:17.597Z,11.60
2019-05-22T19:55:32.417Z,11.50
2019-05-22T19:58:01.549Z,11.40
2019-05-22T20:00:31.526Z,11.30
2019-05-22T20:03:00.886Z,11.30
2019-05-22T20:05:30.405Z,11.30
2019-05-22T20:07:59.803Z,11.20
2019-05-22T20:10:28.790Z,11.10
2019-05-22T20:12:58.752Z,11.10
2019-05-22T20:15:27.811Z,11.00
2019-05-22T20:17:57.390Z,11.00
2019-05-22T20:20:27.180Z,10.90
2019-05-22T20:22:56.328Z,10.80
2019-05-22T20:25:25.740Z,10.80
2019-05-22T20:27:56.312Z,10.80
2019-05-22T20:30:26.929Z,10.70
2019-05-22T20:32:56.137Z,10.70
2019-05-22T20:35:26.294Z,10.60
2019-05-22T20:37:59.705Z,10.50
2019-05-22T20:40:27.490Z,10.40
2019-05-22T20:42:56.482Z,10.40
2019-05-22T20:45:27.587Z,10.40
2019-05-22T20:48:11.829Z,10.30
2019-05-22T20:50:41.669Z,10.30
2019-05-22T20:53:12.597Z,10.30
2019-05-22T20:55:42.529Z,10.20
2019-05-22T20:58:13.380Z,10.20
2019-05-22T21:00:43.413Z,10.10
2019-05-22T21:03:12.983Z,10.10
2019-05-22T21:05:43.379Z,10.00
2019-05-22T21:08:13.338Z,10.00
2019-05-22T21:10:44.508Z,10.00
2019-05-22T21:13:14.921Z,9.90
2019-05-22T21:15:44.881Z,9.90
2019-05-22T21:18:14.258Z,9.90
2019-05-22T21:20:54.342Z,9.80
2019-05-22T21:23:16.734Z,9.80
2019-05-22T21:25:46.181Z,9.70
2019-05-22T21:28:15.259Z,9.70
2019-05-22T21:30:44.236Z,9.60
2019-05-22T21:33:14.737Z,9.60
2019-05-22T21:35:44.015Z,9.50
2019-05-22T21:38:14.081Z,9.40
2019-05-22T21:40:43.476Z,9.40
2019-05-22T21:43:13.577Z,9.40
2019-05-22T21:45:43.030Z,9.40
2019-05-22T21:48:12.095Z,9.30
2019-05-22T21:50:41.101Z,9.20
2019-05-22T21:53:12.446Z,9.20
2019-05-22T21:55:45.522Z,9.10
2019-05-22T21:58:13.632Z,9.10
2019-05-22T22:01:02.318Z,9.10
2019-05-22T22:03:37.821Z,9.00
2019-05-22T22:06:06.992Z,9.00
2019-05-22T22:08:36.522Z,9.00
2019-05-22T22:11:05.609Z,8.90
2019-05-22T22:13:34.937Z,8.90
2019-05-22T22:16:03.900Z,8.80
2019-05-22T22:18:33.355Z,8.80
2019-05-22T22:21:02.738Z,8.80
2019-05-22T22:23:31.977Z,8.70
2019-05-22T22:26:01.442Z,8.70
2019-05-22T22:28:30.779Z,8.60
2019-05-22T22:31:04.030Z,8.60
2019-05-22T22:33:34.968Z,8.60
2019-05-22T22:36:05.718Z,8.60
2019-05-22T22:38:37.538Z,8.50
2019-05-22T22:41:09.139Z,8.50
2019-05-22T22:43:40.772Z,8.50
2019-05-22T22:46:21.212Z,8.40
2019-05-22T22:48:53.102Z,8.40
2019-05-22T22:51:24.560Z,8.40
2019-05-22T22:53:55.770Z,8.40
2019-05-22T22:56:25.665Z,8.30
2019-05-22T22:58:54.558Z,8.30
2019-05-22T23:01:30.554Z,8.30
2019-05-22T23:04:03.638Z,8.30
2019-05-22T23:06:36.106Z,8.20
2019-05-22T23:09:07.123Z,8.10
2019-05-22T23:11:37.628Z,8.10
2019-05-22T23:14:07.866Z,8.00
2019-05-22T23:16:37.500Z,8.00
2019-05-22T23:19:40.853Z,8.00
2019-05-22T23:22:24.064Z,7.90
2019-05-22T23:24:55.839Z,7.90
2019-05-22T23:27:24.923Z,7.90
2019-05-22T23:29:56.239Z,7.90
2019-05-22T23:32:25.577Z,7.80
2019-05-22T23:34:56.669Z,7.80
2019-05-22T23:37:27.769Z,7.70
2019-05-22T23:39:56.933Z,7.70
2019-05-22T23:42:31.267Z,7.60
2019-05-22T23:45:02.663Z,7.60
2019-05-22T23:47:32.191Z,7.60
2019-05-22T23:50:01.581Z,7.50
2019-05-22T23:52:30.940Z,7.50
2019-05-22T23:55:03.998Z,7.50
2019-05-22T23:57:33.793Z,7.50
